Time;durP1;ratioP1;P1;durP2;ratioP2;P2;SDS_P1;SDS_P2;PMS_P1;PMS_P2;Temp;Humidity;BMP_temperature;BMP_pressure;BME280_temperature;BME280_humidity;BME280_pressure;Samples;Min_cycle;Max_cycle;Signal;HPM_P1;HPM_P2
2022/06/29 00:00:17;;;;;;;3.03;2.10;;;;;;;20.52;47.10;101561.97;4905551;28;123706;-74
2022/06/29 00:02:45;;;;;;;4.05;2.17;;;;;;;20.49;47.12;101559.50;4905716;28;119466;-74
2022/06/29 00:05:15;;;;;;;3.78;2.03;;;;;;;20.42;47.29;101554.59;4904758;28;118941;-72
2022/06/29 00:07:44;;;;;;;4.68;2.50;;;;;;;20.39;47.48;101548.56;4910886;28;123835;-72
2022/06/29 00:10:13;;;;;;;3.28;2.30;;;;;;;20.35;47.52;101553.31;4906210;28;124071;-72
2022/06/29 00:12:41;;;;;;;3.47;2.13;;;;;;;20.31;47.62;101551.00;4907380;28;119473;-72
2022/06/29 00:15:10;;;;;;;5.05;2.70;;;;;;;20.27;47.53;101555.75;4902885;28;119368;-72
2022/06/29 00:17:37;;;;;;;4.13;2.45;;;;;;;20.26;47.75;101548.63;4905208;28;124728;-73
2022/06/29 00:20:10;;;;;;;4.25;2.60;;;;;;;20.22;47.68;101552.53;4910550;28;122890;-72
2022/06/29 00:22:38;;;;;;;4.00;2.58;;;;;;;20.21;47.74;101545.41;4906354;28;119919;-72
2022/06/29 00:25:06;;;;;;;4.43;2.90;;;;;;;20.19;47.70;101547.34;4909129;28;118934;-72
2022/06/29 00:27:33;;;;;;;3.15;2.60;;;;;;;20.20;47.86;101551.78;4909313;28;124095;-72
2022/06/29 00:30:02;;;;;;;4.50;2.90;;;;;;;20.18;47.93;101542.97;4909290;28;123027;-71
2022/06/29 00:32:30;;;;;;;7.47;3.05;;;;;;;20.16;47.96;101542.22;4906614;28;119664;-71
2022/06/29 00:34:59;;;;;;;4.97;3.38;;;;;;;20.15;47.99;101540.50;4901644;28;118675;-71
2022/06/29 00:37:27;;;;;;;5.72;3.08;;;;;;;20.13;48.26;101531.69;4902071;28;123861;-71
2022/06/29 00:39:55;;;;;;;4.63;3.28;;;;;;;20.10;48.25;101526.53;4907259;28;123511;-72
2022/06/29 00:42:23;;;;;;;3.92;3.15;;;;;;;20.07;48.10;101532.16;4904677;28;120219;-71
2022/06/29 00:44:52;;;;;;;3.63;3.00;;;;;;;20.02;48.30;101536.03;4899456;28;119765;-71
2022/06/29 00:47:19;;;;;;;4.05;2.78;;;;;;;19.98;48.37;101534.53;4902894;28;124038;-73
2022/06/29 00:49:47;;;;;;;4.47;3.08;;;;;;;19.95;48.46;101537.47;4923222;28;123431;-72
2022/06/29 00:52:16;;;;;;;3.50;3.10;;;;;;;19.90;48.78;101530.72;4906146;28;118309;-72
2022/06/29 00:54:51;;;;;;;5.57;3.30;;;;;;;19.88;48.69;101528.13;4901150;28;118699;-72
2022/06/29 00:57:22;;;;;;;5.65;3.58;;;;;;;19.86;48.72;101535.44;4905938;28;124515;-72
2022/06/29 00:59:52;;;;;;;4.80;3.42;;;;;;;19.86;48.58;101524.69;4900423;28;124195;-72
2022/06/29 01:02:22;;;;;;;5.55;3.72;;;;;;;19.85;48.65;101522.97;4920945;28;118439;-72
2022/06/29 01:04:50;;;;;;;4.65;3.70;;;;;;;19.83;48.81;101519.53;4903506;28;119021;-73
2022/06/29 01:07:23;;;;;;;5.82;4.13;;;;;;;19.82;48.81;101523.22;4906202;28;124709;-72
2022/06/29 01:09:50;;;;;;;6.55;3.90;;;;;;;19.81;48.64;101516.09;4899706;28;123728;-72
2022/06/29 01:12:17;;;;;;;6.13;4.25;;;;;;;19.79;48.83;101520.75;4907135;28;119159;-72
2022/06/29 01:14:47;;;;;;;8.85;4.47;;;;;;;19.77;48.81;101509.25;4908191;28;118715;-72
2022/06/29 01:17:14;;;;;;;6.38;3.92;;;;;;;19.74;48.75;101514.84;4909181;28;124097;-73
2022/06/29 01:19:42;;;;;;;5.40;4.38;;;;;;;19.72;48.81;101512.28;4908854;28;123707;-73
2022/06/29 01:22:17;;;;;;;4.55;4.00;;;;;;;19.70;48.92;101513.31;4908266;28;119597;-72
2022/06/29 01:24:45;;;;;;;4.82;4.32;;;;;;;19.68;48.73;101509.88;4908810;28;120927;-73
2022/06/29 01:27:13;;;;;;;6.25;4.40;;;;;;;19.64;48.75;101504.72;4910986;28;123782;-72
2022/06/29 01:29:42;;;;;;;5.28;4.65;;;;;;;19.63;49.08;101513.75;4908533;28;123748;-71
2022/06/29 01:32:09;;;;;;;5.32;4.07;;;;;;;19.61;49.00;101509.47;4910504;28;120921;-71
2022/06/29 01:34:37;;;;;;;5.90;4.45;;;;;;;19.58;49.16;101505.16;4908160;28;119589;-71
2022/06/29 01:37:06;;;;;;;7.10;4.20;;;;;;;19.56;48.99;101512.50;4911510;28;98604;-71
2022/06/29 01:39:35;;;;;;;6.55;4.57;;;;;;;19.55;49.03;101510.78;4907923;28;124066;-70
2022/06/29 01:42:03;;;;;;;5.75;4.57;;;;;;;19.52;49.01;101505.63;4908041;28;119403;-71
2022/06/29 01:44:31;;;;;;;6.25;4.80;;;;;;;19.52;49.24;101507.47;4907933;28;119717;-70
2022/06/29 01:46:58;;;;;;;5.15;4.65;;;;;;;19.50;49.28;101507.56;4906106;28;124210;-71
2022/06/29 01:49:25;;;;;;;7.10;4.97;;;;;;;19.48;49.21;101498.75;4908109;28;124672;-71
2022/06/29 01:51:52;;;;;;;5.30;4.80;;;;;;;19.48;49.36;101498.75;4907489;28;119586;-71
2022/06/29 01:54:20;;;;;;;5.68;4.85;;;;;;;19.48;49.35;101497.88;4907965;28;120279;-72
2022/06/29 01:56:47;;;;;;;6.22;4.88;;;;;;;19.47;49.32;101499.72;4903759;28;124375;-73
2022/06/29 01:59:15;;;;;;;6.35;4.72;;;;;;;19.45;49.49;101494.44;4907993;28;123910;-73
2022/06/29 02:01:42;;;;;;;6.05;4.82;;;;;;;19.44;49.59;101487.38;4907415;28;119287;-73
2022/06/29 02:04:09;;;;;;;5.60;4.90;;;;;;;19.43;49.43;101495.53;4907922;28;119861;-73
2022/06/29 02:06:36;;;;;;;8.13;5.35;;;;;;;19.41;49.47;101489.41;4906861;28;124128;-73
2022/06/29 02:09:03;;;;;;;7.88;5.38;;;;;;;19.41;49.52;101481.34;4907201;28;123782;-72
2022/06/29 02:11:30;;;;;;;8.00;5.15;;;;;;;19.40;49.48;101490.38;4905953;28;119336;-72
2022/06/29 02:13:57;;;;;;;5.88;5.30;;;;;;;19.40;49.74;101490.38;4905182;28;118953;-72
2022/06/29 02:16:25;;;;;;;6.93;5.22;;;;;;;19.39;49.58;101491.34;4902699;28;124172;-72
2022/06/29 02:18:52;;;;;;;6.65;5.53;;;;;;;19.38;49.79;101497.69;4902560;28;123132;-71
2022/06/29 02:21:19;;;;;;;7.22;5.15;;;;;;;19.37;49.69;101490.63;4906319;28;120672;-72
2022/06/29 02:23:46;;;;;;;7.72;5.85;;;;;;;19.37;49.77;101490.63;4907757;28;119975;-72
2022/06/29 02:26:14;;;;;;;6.45;5.65;;;;;;;19.37;49.76;101485.25;4902748;28;124345;-72
2022/06/29 02:28:41;;;;;;;6.50;5.82;;;;;;;19.37;49.77;101479.88;4905063;28;123871;-72
2022/06/29 02:36:53;;;;;;;7.50;5.90;;;;;;;19.34;49.75;101463.97;4862870;28;124219;-72
2022/06/29 02:39:21;;;;;;;6.13;5.50;;;;;;;19.34;49.82;101463.97;4904956;28;124639;-72
2022/06/29 02:41:48;;;;;;;6.93;5.43;;;;;;;19.32;49.73;101460.53;4903820;28;119587;-72
2022/06/29 02:44:15;;;;;;;8.25;6.07;;;;;;;19.30;50.02;101462.47;4909056;28;118887;-72
2022/06/29 02:46:42;;;;;;;7.85;5.93;;;;;;;19.29;50.20;101466.13;4917809;28;123626;-73
2022/06/29 02:49:09;;;;;;;8.82;5.57;;;;;;;19.28;50.13;101469.78;4896913;28;123542;-71
2022/06/29 02:51:36;;;;;;;6.22;5.55;;;;;;;19.28;50.16;101469.78;4901172;28;119329;-71
2022/06/29 02:54:03;;;;;;;7.78;5.38;;;;;;;19.26;50.24;101465.38;4896033;28;118726;-71
2022/06/29 02:56:31;;;;;;;7.38;5.60;;;;;;;19.28;50.06;101467.09;4907169;28;124910;-71
2022/06/29 02:58:58;;;;;;;6.78;5.88;;;;;;;19.25;50.15;101460.13;4903814;28;124181;-72
2022/06/29 03:01:25;;;;;;;7.75;5.60;;;;;;;19.24;50.47;101464.63;4908433;28;119568;-72
2022/06/29 03:03:53;;;;;;;7.22;5.68;;;;;;;19.23;50.21;101479.03;4904998;28;119625;-73
2022/06/29 03:06:20;;;;;;;6.47;5.75;;;;;;;19.21;50.47;101470.22;4896696;28;124172;-73
2022/06/29 03:08:47;;;;;;;6.28;5.57;;;;;;;19.19;50.34;101456.06;4905778;28;124342;-72
2022/06/29 03:11:15;;;;;;;6.43;5.78;;;;;;;19.18;50.47;101454.31;4902563;28;120153;-73
2022/06/29 03:13:42;;;;;;;7.40;5.65;;;;;;;19.17;50.72;101460.66;4907851;28;119295;-73
2022/06/29 03:16:09;;;;;;;6.40;5.80;;;;;;;19.17;50.66;101457.97;4904570;28;123715;-73
2022/06/29 03:18:37;;;;;;;7.75;5.72;;;;;;;19.17;50.79;101441.84;4902258;28;124160;-73
2022/06/29 03:21:11;;;;;;;6.30;5.60;;;;;;;19.16;50.75;101448.22;4901605;28;119097;-73
2022/06/29 03:23:38;;;;;;;6.03;5.43;;;;;;;19.15;50.75;101443.78;4903923;28;118780;-73
2022/06/29 03:26:05;;;;;;;7.45;5.60;;;;;;;19.13;50.85;101444.88;4901573;28;124672;-73
2022/06/29 03:28:32;;;;;;;7.50;5.53;;;;;;;19.12;50.86;101433.28;4896309;28;123787;-72
2022/06/29 03:30:59;;;;;;;6.88;5.43;;;;;;;19.11;50.83;101434.25;4908584;28;118913;-72
2022/06/29 03:33:27;;;;;;;6.88;5.40;;;;;;;19.09;51.04;101433.50;4899804;28;119434;-73
2022/06/29 03:35:54;;;;;;;7.20;5.97;;;;;;;19.08;51.00;101426.44;4901535;28;124666;-74
2022/06/29 03:38:22;;;;;;;7.80;5.53;;;;;;;19.07;51.08;101424.69;4901233;28;122765;-73
2022/06/29 03:40:49;;;;;;;6.30;5.70;;;;;;;19.07;51.03;101427.38;4901356;28;120411;-75
2022/06/29 03:43:17;;;;;;;7.22;6.50;;;;;;;19.07;51.11;101422.00;4900769;28;118530;-74
2022/06/29 03:45:44;;;;;;;10.43;6.35;;;;;;;19.06;51.13;101417.59;4909857;28;123671;-74
2022/06/29 03:48:11;;;;;;;6.93;6.10;;;;;;;19.04;51.11;101430.28;4904330;28;123523;-72
2022/06/29 03:50:38;;;;;;;10.90;6.00;;;;;;;19.03;51.14;101428.59;4906325;28;119820;-73
2022/06/29 03:53:06;;;;;;;6.20;5.60;;;;;;;19.00;51.23;101428.78;4903699;28;118998;-73
2022/06/29 03:55:33;;;;;;;9.40;6.57;;;;;;;18.98;51.44;101430.72;4898315;28;123885;-74
2022/06/29 03:58:00;;;;;;;6.53;5.93;;;;;;;18.98;51.47;101425.34;4904603;28;123734;-72
2022/06/29 04:00:27;;;;;;;9.52;6.40;;;;;;;18.97;51.40;101423.66;4905507;28;119822;-73
2022/06/29 04:02:54;;;;;;;7.88;6.57;;;;;;;18.96;51.47;101428.16;4906981;28;119916;-73
2022/06/29 04:05:21;;;;;;;10.55;6.47;;;;;;;18.95;51.69;101425.56;4908161;28;123846;-73
2022/06/29 04:07:49;;;;;;;9.07;6.53;;;;;;;18.94;51.41;101423.88;4901657;28;123105;-73
2022/06/29 04:10:16;;;;;;;6.88;6.18;;;;;;;18.94;51.54;101418.50;4911231;28;119974;-72
2022/06/29 04:12:43;;;;;;;7.53;5.88;;;;;;;18.93;51.82;101422.13;4908042;28;117883;-72
2022/06/29 04:15:10;;;;;;;7.43;5.70;;;;;;;18.94;51.94;101429.22;4902025;28;123954;-71
2022/06/29 04:17:39;;;;;;;7.65;6.25;;;;;;;18.94;51.76;101421.19;4901021;28;124321;-72
2022/06/29 04:20:07;;;;;;;6.97;5.55;;;;;;;18.96;51.89;101424.59;4905726;28;120021;-72
2022/06/29 04:22:34;;;;;;;7.63;6.07;;;;;;;18.97;51.95;101424.50;4907322;28;118814;-72
2022/06/29 04:25:01;;;;;;;6.88;5.50;;;;;;;18.98;51.95;101417.31;4904230;28;124436;-72
2022/06/29 04:27:28;;;;;;;6.95;6.13;;;;;;;18.99;51.87;101416.34;4907181;28;124730;-71
2022/06/29 04:29:56;;;;;;;6.32;5.72;;;;;;;19.01;51.92;101419.78;4907650;28;119093;-72
2022/06/29 04:32:24;;;;;;;6.95;5.65;;;;;;;19.03;51.95;101420.53;4907146;28;119209;-71
2022/06/29 04:34:51;;;;;;;6.30;5.50;;;;;;;19.04;51.91;101425.78;4904421;28;124266;-71
2022/06/29 04:37:19;;;;;;;5.93;5.32;;;;;;;19.06;52.08;101412.22;4911714;28;122871;-71
2022/06/29 04:39:46;;;;;;;7.20;5.20;;;;;;;19.09;52.13;101412.03;4907475;28;119996;-72
2022/06/29 04:42:13;;;;;;;8.65;5.55;;;;;;;19.12;52.02;101406.44;4906042;28;118546;-72
2022/06/29 04:44:44;;;;;;;6.57;5.88;;;;;;;19.15;52.09;101405.34;4906813;28;124402;-72
2022/06/29 04:47:11;;;;;;;8.35;6.07;;;;;;;19.15;51.94;101394.59;4907866;28;124083;-72
2022/06/29 04:49:39;;;;;;;6.93;5.75;;;;;;;19.19;52.21;101402.34;4908206;28;120199;-72
2022/06/29 04:52:06;;;;;;;6.22;5.60;;;;;;;19.25;52.54;101412.63;4893937;28;119224;-72
2022/06/29 04:54:34;;;;;;;9.05;5.72;;;;;;;19.38;52.66;101407.25;4901698;28;124326;-73
2022/06/29 04:57:01;;;;;;;9.27;5.40;;;;;;;19.53;52.70;101399.84;4905229;28;124352;-72
2022/06/29 04:59:28;;;;;;;6.90;5.40;;;;;;;19.72;52.90;101403.84;4904211;28;119301;-72
2022/06/29 05:01:55;;;;;;;6.97;5.32;;;;;;;19.91;52.70;101397.97;4895645;28;119648;-73
2022/06/29 05:04:22;;;;;;;5.75;4.95;;;;;;;20.11;52.48;101397.31;4908098;28;123091;-73
2022/06/29 05:06:50;;;;;;;5.70;5.10;;;;;;;20.29;52.19;101396.91;4905724;28;124129;-73
2022/06/29 05:09:17;;;;;;;6.15;5.40;;;;;;;20.40;52.35;101389.72;4904682;28;119292;-73
2022/06/29 05:11:44;;;;;;;6.57;5.97;;;;;;;20.52;52.10;101387.03;4903557;28;118753;-73
2022/06/29 05:14:12;;;;;;;7.18;5.60;;;;;;;20.62;52.04;101388.03;4907960;28;124892;-72
2022/06/29 05:16:39;;;;;;;7.22;5.75;;;;;;;20.69;51.80;101389.28;4903400;28;124266;-73
2022/06/29 05:19:06;;;;;;;7.03;5.75;;;;;;;20.74;51.70;101397.84;4896588;28;120133;-73
2022/06/29 05:21:33;;;;;;;7.13;5.70;;;;;;;20.78;51.92;101393.94;4906165;28;119030;-71
2022/06/29 05:24:00;;;;;;;6.20;5.22;;;;;;;20.84;51.77;101397.13;4905984;28;124388;-71
2022/06/29 05:26:30;;;;;;;8.38;5.55;;;;;;;20.88;51.83;101398.59;4900537;28;124104;-71
2022/06/29 05:28:59;;;;;;;7.65;5.43;;;;;;;20.94;51.84;101403.47;4900660;28;119794;-70
2022/06/29 05:31:29;;;;;;;6.30;5.65;;;;;;;20.98;51.83;101399.56;4906133;28;119013;-73
2022/06/29 05:33:56;;;;;;;8.38;5.68;;;;;;;21.05;51.88;101392.69;4914269;28;123706;-70
2022/06/29 05:36:24;;;;;;;6.88;5.80;;;;;;;21.13;51.83;101387.53;4909745;28;124718;-70
2022/06/29 05:38:51;;;;;;;7.22;5.10;;;;;;;21.22;52.01;101390.47;4908814;28;120105;-70
2022/06/29 05:41:19;;;;;;;7.88;5.72;;;;;;;21.32;52.09;101396.81;4903684;28;119695;-69
2022/06/29 05:43:51;;;;;;;6.88;5.47;;;;;;;21.42;51.98;101386.13;4906865;28;124079;-70
2022/06/29 05:46:19;;;;;;;9.20;5.03;;;;;;;21.52;51.54;101387.97;4906282;28;123984;-70
2022/06/29 05:48:46;;;;;;;6.75;5.10;;;;;;;21.64;51.85;101390.66;4907227;28;119194;-71
2022/06/29 05:51:14;;;;;;;4.97;4.47;;;;;;;21.74;51.71;101392.44;4907999;28;118854;-71
2022/06/29 05:53:42;;;;;;;6.75;4.50;;;;;;;21.85;51.37;101383.47;4908465;28;123844;-71
2022/06/29 05:56:09;;;;;;;6.45;4.78;;;;;;;21.95;51.29;101384.38;4907673;28;123872;-70
2022/06/29 05:58:36;;;;;;;6.65;4.75;;;;;;;22.03;51.08;101385.59;4909400;28;119171;-70
2022/06/29 06:01:08;;;;;;;5.60;4.50;;;;;;;22.10;50.99;101392.19;4906947;28;118755;-70
2022/06/29 06:03:36;;;;;;;5.72;4.43;;;;;;;22.19;50.84;101394.09;4906775;28;124213;-74
2022/06/29 06:06:04;;;;;;;6.82;4.45;;;;;;;22.29;50.67;101392.34;4922767;28;124722;-74
2022/06/29 06:08:31;;;;;;;8.52;4.90;;;;;;;22.39;50.18;101391.53;4908149;28;119366;-69
2022/06/29 06:10:58;;;;;;;5.88;4.10;;;;;;;22.45;50.49;101391.88;4910049;28;119155;-73
2022/06/29 06:13:26;;;;;;;6.53;4.40;;;;;;;22.56;50.26;101388.22;4907572;28;124039;-70
2022/06/29 06:15:53;;;;;;;7.07;4.53;;;;;;;22.68;49.83;101386.31;4904302;28;124153;-71
2022/06/29 06:18:24;;;;;;;9.45;4.50;;;;;;;22.79;50.08;101388.03;4906705;28;119557;-70
2022/06/29 06:20:51;;;;;;;7.22;4.20;;;;;;;22.92;49.79;101394.06;4898695;28;118941;-73
2022/06/29 06:23:20;;;;;;;6.93;4.10;;;;;;;23.02;49.61;101389.56;4907775;28;123696;-73
2022/06/29 06:25:47;;;;;;;7.28;4.32;;;;;;;23.16;49.71;101390.22;4907430;28;124710;-73
2022/06/29 06:28:15;;;;;;;6.00;4.22;;;;;;;23.26;49.34;101391.09;4905561;28;120395;-73
2022/06/29 06:30:42;;;;;;;7.70;4.30;;;;;;;23.37;48.95;101392.81;4907826;28;119382;-73
2022/06/29 06:33:09;;;;;;;7.78;4.50;;;;;;;23.45;49.25;101396.56;4907562;28;124391;-73
2022/06/29 06:35:36;;;;;;;8.05;5.03;;;;;;;23.55;48.83;101393.84;4905779;28;125282;-73
2022/06/29 06:38:03;;;;;;;4.97;4.40;;;;;;;23.63;48.51;101387.75;4907232;28;119286;-73
2022/06/29 06:43:16;;;;;;;5.30;4.40;;;;;;;23.79;48.32;101381.78;4909708;28;124039;-73
2022/06/29 06:45:44;;;;;;;6.60;4.78;;;;;;;23.90;48.21;101390.63;4908932;28;123534;-73
2022/06/29 06:48:11;;;;;;;6.28;4.40;;;;;;;24.04;48.02;101374.97;4907820;28;119367;-73
2022/06/29 06:50:38;;;;;;;6.72;4.28;;;;;;;24.19;48.06;101373.50;4910178;28;119555;-72
2022/06/29 06:53:11;;;;;;;4.43;3.70;;;;;;;24.36;47.65;101379.19;4908289;28;123785;-72
2022/06/29 06:55:38;;;;;;;7.03;4.18;;;;;;;24.48;47.22;101378.00;4909343;28;123701;-73
2022/06/29 06:58:05;;;;;;;5.68;4.00;;;;;;;24.61;47.05;101367.72;4908615;28;118398;-73
2022/06/29 07:00:32;;;;;;;8.27;4.30;;;;;;;24.74;46.77;101371.97;4910356;28;118896;-73
2022/06/29 07:02:59;;;;;;;5.65;4.32;;;;;;;24.87;46.68;101367.06;4907503;28;124240;-73
2022/06/29 07:05:27;;;;;;;6.18;4.28;;;;;;;25.00;46.26;101372.13;4907496;28;124660;-72
2022/06/29 07:07:54;;;;;;;7.20;4.38;;;;;;;25.14;46.35;101374.31;4906939;28;119409;-72
2022/06/29 07:10:21;;;;;;;5.18;4.20;;;;;;;25.29;46.22;101374.69;4910078;28;120274;-72
2022/06/29 07:12:48;;;;;;;5.60;4.05;;;;;;;25.42;45.92;101372.47;4906085;28;124298;-72
2022/06/29 07:15:22;;;;;;;7.63;4.25;;;;;;;25.53;45.51;101373.25;4898247;28;123877;-72
2022/06/29 07:17:50;;;;;;;6.38;4.47;;;;;;;25.63;45.88;101363.16;4906266;28;120315;-72
2022/06/29 07:20:17;;;;;;;5.00;4.50;;;;;;;25.76;46.01;101369.06;4909968;28;119818;-72
2022/06/29 07:22:45;;;;;;;7.70;5.15;;;;;;;25.90;46.14;101364.09;4908501;28;124469;-72
2022/06/29 07:25:13;;;;;;;7.50;4.78;;;;;;;26.03;45.37;101367.28;4897632;28;124347;-72
2022/06/29 07:27:40;;;;;;;8.05;4.68;;;;;;;26.16;44.82;101370.44;4906555;28;119015;-72
2022/06/29 07:30:08;;;;;;;7.80;4.43;;;;;;;26.30;44.29;101365.44;4909042;28;119086;-72
2022/06/29 07:32:35;;;;;;;6.68;5.00;;;;;;;26.40;44.37;101361.59;4909638;28;123779;-72
2022/06/29 07:35:03;;;;;;;7.35;4.65;;;;;;;26.52;43.85;101358.59;4910387;28;124597;-72
2022/06/29 07:37:30;;;;;;;7.00;4.95;;;;;;;26.58;44.23;101364.25;4912457;28;119419;-72
2022/06/29 07:39:58;;;;;;;6.00;4.78;;;;;;;26.69;43.74;101359.56;4912122;28;119655;-73
2022/06/29 07:42:41;;;;;;;5.90;4.55;;;;;;;26.80;43.73;101368.31;4910257;28;124302;-73
2022/06/29 07:45:08;;;;;;;5.70;4.38;;;;;;;26.90;44.17;101362.75;4910045;28;124384;-74
2022/06/29 07:47:36;;;;;;;7.28;5.05;;;;;;;27.04;43.91;101357.69;4911475;28;119435;-73
2022/06/29 07:50:06;;;;;;;8.05;4.65;;;;;;;27.21;43.69;101364.88;4913431;28;119248;-72
2022/06/29 07:52:33;;;;;;;6.90;5.20;;;;;;;27.37;43.20;101356.81;4911701;28;122913;-72
2022/06/29 07:55:01;;;;;;;6.90;4.43;;;;;;;27.55;43.05;101361.25;4910763;28;124558;-73
2022/06/29 07:57:28;;;;;;;5.45;3.20;;;;;;;27.69;42.18;101363.31;4911279;28;119508;-71
2022/06/29 07:59:56;;;;;;;5.15;3.75;;;;;;;27.75;41.69;101362.63;4913264;28;118845;-71
2022/06/29 08:02:23;;;;;;;5.65;4.03;;;;;;;27.76;41.45;101358.91;4910848;28;123873;-72
2022/06/29 08:04:50;;;;;;;5.88;3.78;;;;;;;27.80;41.19;101353.94;4910639;28;123981;-72
2022/06/29 08:07:31;;;;;;;5.32;3.95;;;;;;;27.86;41.57;101375.06;4908989;28;120076;-73
2022/06/29 08:09:59;;;;;;;7.93;3.60;;;;;;;27.89;41.61;101373.91;4919908;28;120627;-73
2022/06/29 08:12:26;;;;;;;6.70;3.83;;;;;;;27.95;41.40;101367.75;4911145;28;124380;-73
2022/06/29 08:14:53;;;;;;;5.28;3.45;;;;;;;28.05;41.01;101368.44;4903776;28;123832;-72
2022/06/29 08:17:21;;;;;;;5.35;3.75;;;;;;;28.15;41.28;101363.66;4906958;28;119270;-73
2022/06/29 08:19:48;;;;;;;6.07;3.67;;;;;;;28.28;41.10;101365.03;4910512;28;120086;-73
2022/06/29 08:22:15;;;;;;;5.70;4.05;;;;;;;28.39;41.34;101364.66;4910708;28;123965;-72
2022/06/29 08:24:42;;;;;;;5.68;4.05;;;;;;;28.50;41.05;101361.56;4897497;28;122732;-72
2022/06/29 08:27:09;;;;;;;5.28;4.13;;;;;;;28.65;41.16;101358.13;4901245;28;119054;-72
2022/06/29 08:29:56;;;;;;;5.78;4.47;;;;;;;28.80;40.44;101361.84;4908289;28;119023;-72
2022/06/29 08:32:23;;;;;;;4.32;3.30;;;;;;;28.95;41.28;101358.34;4894474;28;123286;-72
2022/06/29 08:34:51;;;;;;;7.60;4.20;;;;;;;29.10;40.03;101351.13;4908898;28;124329;-72
2022/06/29 08:37:19;;;;;;;5.68;4.18;;;;;;;29.13;39.38;101353.53;4910524;28;119194;-71
2022/06/29 08:39:46;;;;;;;6.07;4.55;;;;;;;29.17;39.25;101345.84;4911261;28;118808;-70
2022/06/29 08:42:19;;;;;;;7.47;4.07;;;;;;;29.16;39.13;101350.44;4911600;28;124128;-72
2022/06/29 08:44:47;;;;;;;6.75;4.18;;;;;;;29.17;39.66;101338.50;4906932;28;124661;-72
2022/06/29 08:47:15;;;;;;;5.00;4.18;;;;;;;29.25;39.93;101337.59;4897866;28;121626;-70
2022/06/29 08:49:44;;;;;;;5.85;3.95;;;;;;;29.39;40.34;101344.19;4911461;28;119407;-70
2022/06/29 08:52:11;;;;;;;6.10;4.07;;;;;;;29.55;40.00;101344.03;4905249;28;124409;-70
2022/06/29 08:54:43;;;;;;;5.47;4.18;;;;;;;29.67;38.87;101342.59;4903567;28;123623;-70
2022/06/29 08:57:11;;;;;;;5.75;4.10;;;;;;;29.74;38.97;101341.88;4912235;28;120768;-70
2022/06/29 08:59:38;;;;;;;7.72;4.10;;;;;;;29.83;38.85;101343.50;4905889;28;119952;-70
2022/06/29 09:02:25;;;;;;;5.82;4.50;;;;;;;29.92;38.73;101350.59;4905617;28;124124;-70
2022/06/29 09:04:54;;;;;;;5.20;3.78;;;;;;;29.98;38.97;101338.94;4901147;28;123871;-70
2022/06/29 09:07:23;;;;;;;5.55;3.88;;;;;;;30.06;38.70;101335.28;4911826;28;118913;-72
2022/06/29 09:10:06;;;;;;;6.72;4.25;;;;;;;30.17;38.23;101336.72;4909922;28;119003;-71
2022/06/29 09:12:33;;;;;;;5.97;4.03;;;;;;;30.19;37.48;101343.69;4908603;28;124333;-71
2022/06/29 09:15:03;;;;;;;5.22;3.72;;;;;;;30.22;37.63;101347.94;4917344;28;123960;-70
2022/06/29 09:17:31;;;;;;;5.25;4.00;;;;;;;30.29;37.88;101340.69;4906374;28;119438;-70
2022/06/29 09:19:59;;;;;;;6.45;3.90;;;;;;;30.40;37.36;101342.13;4896834;28;119389;-70
2022/06/29 09:22:52;;;;;;;4.55;3.45;;;;;;;30.42;37.33;101340.91;4909042;28;123808;-71
2022/06/29 09:25:26;;;;;;;6.28;3.38;;;;;;;30.39;36.98;101338.56;4910216;28;124513;-71
2022/06/29 09:27:55;;;;;;;6.22;3.28;;;;;;;30.39;36.82;101341.28;4907839;28;119745;-71
2022/06/29 09:30:35;;;;;;;6.40;3.08;;;;;;;30.35;37.02;101339.97;4910943;28;118780;-71
2022/06/29 09:33:05;;;;;;;4.72;3.17;;;;;;;30.30;36.77;101342.38;4909048;28;124639;-71
2022/06/29 09:35:34;;;;;;;3.90;3.05;;;;;;;30.26;36.40;101335.59;4909828;28;124606;-71
2022/06/29 09:38:23;;;;;;;5.30;3.20;;;;;;;30.22;36.43;101334.28;4909234;28;118232;-71
2022/06/29 09:41:01;;;;;;;5.07;3.25;;;;;;;30.19;36.24;101334.63;4902302;28;118879;-70
2022/06/29 09:43:30;;;;;;;6.28;4.68;;;;;;;30.16;36.68;101337.72;4904842;28;124106;-70
2022/06/29 09:45:58;;;;;;;6.13;4.05;;;;;;;30.17;36.91;101336.72;4909956;28;123721;-70
2022/06/29 09:48:26;;;;;;;5.32;3.97;;;;;;;30.20;37.28;101328.16;4907442;28;120232;-70
2022/06/29 09:50:55;;;;;;;5.18;3.47;;;;;;;30.23;37.12;101330.50;4909649;28;119441;-71
2022/06/29 09:53:39;;;;;;;5.82;3.67;;;;;;;30.23;36.40;101335.97;4910922;28;124785;-72
2022/06/29 09:56:12;;;;;;;7.40;3.72;;;;;;;30.23;36.79;101341.41;4895958;28;124217;-72
2022/06/29 09:58:47;;;;;;;5.40;3.50;;;;;;;30.19;36.28;101334.63;4908165;28;118221;-70
2022/06/29 10:04:07;;;;;;;5.50;4.00;;;;;;;30.08;36.96;101334.06;4908205;28;124096;-70
2022/06/29 10:06:35;;;;;;;7.55;4.40;;;;;;;30.08;36.75;101336.81;4909076;28;123627;-70
2022/06/29 10:09:03;;;;;;;5.57;4.00;;;;;;;30.09;37.54;101340.38;4909629;28;118556;-70
2022/06/29 10:14:41;;;;;;;6.63;4.75;;;;;;;30.16;37.45;101335.00;4889836;28;124075;-70
2022/06/29 10:17:18;;;;;;;7.25;4.60;;;;;;;30.16;37.39;101335.00;4902618;28;123956;-70
2022/06/29 10:19:59;;;;;;;7.07;4.28;;;;;;;30.23;38.02;101335.97;4896496;28;119207;-70
2022/06/29 10:22:29;;;;;;;4.25;3.75;;;;;;;30.35;37.52;101339.97;4911610;28;119376;-70
2022/06/29 10:25:02;;;;;;;5.85;3.55;;;;;;;30.40;38.18;101339.41;4925336;28;123075;-70
2022/06/29 10:27:29;;;;;;;6.45;4.25;;;;;;;30.53;37.77;101330.53;4898771;28;123993;-72
2022/06/29 10:30:28;;;;;;;4.82;3.80;;;;;;;30.61;36.85;101316.75;4907268;28;119229;-72
2022/06/29 10:33:31;;;;;;;7.15;3.50;;;;;;;30.70;37.52;101315.63;4907703;28;119000;-73
2022/06/29 10:36:04;;;;;;;4.53;3.45;;;;;;;30.84;36.64;101324.88;4908874;28;122907;-72
2022/06/29 10:38:54;;;;;;;4.40;2.92;;;;;;;30.91;36.07;101322.22;4906718;28;122831;-73
2022/06/29 10:44:07;;;;;;;4.82;2.92;;;;;;;31.00;35.18;101318.34;4894438;28;120169;-72
2022/06/29 10:46:58;;;;;;;4.07;2.80;;;;;;;31.05;34.92;101318.63;4904027;28;123940;-72
2022/06/29 10:49:26;;;;;;;4.20;2.20;;;;;;;31.07;33.84;101310.22;4908816;28;123925;-72
2022/06/29 10:51:54;;;;;;;3.22;2.03;;;;;;;31.06;34.00;101314.81;4906409;28;120451;-73
2022/06/29 10:54:30;;;;;;;4.50;2.63;;;;;;;31.12;35.13;101311.34;4896580;28;118006;-71
2022/06/29 10:56:57;;;;;;;2.63;1.88;;;;;;;31.19;33.81;101315.00;4922129;28;124095;-72
2022/06/29 10:59:34;;;;;;;3.78;1.88;;;;;;;31.26;33.20;101306.00;4908376;28;124596;-71
2022/06/29 11:02:11;;;;;;;2.63;1.63;;;;;;;31.31;33.36;101295.31;4906941;28;119040;-72
2022/06/29 11:04:39;;;;;;;4.20;1.80;;;;;;;31.39;32.95;101303.41;4904829;28;119261;-71
2022/06/29 11:12:54;;;;;;;3.88;1.65;;;;;;;31.52;32.39;101292.59;4911204;28;119195;-71
2022/06/29 11:15:48;;;;;;;4.15;1.30;;;;;;;31.54;32.92;101285.03;4912020;28;117979;-71
2022/06/29 11:18:17;;;;;;;3.30;1.73;;;;;;;31.57;32.22;101279.19;4921724;28;123270;-71
2022/06/29 11:20:48;;;;;;;3.17;1.58;;;;;;;31.60;32.22;101284.25;4912644;28;123697;-71
2022/06/29 11:23:27;;;;;;;5.80;1.52;;;;;;;31.61;31.31;101275.00;4910150;28;119740;-71
2022/06/29 11:25:54;;;;;;;2.15;1.50;;;;;;;31.62;31.80;101265.72;4907614;28;120356;-71
2022/06/29 11:28:29;;;;;;;3.00;1.40;;;;;;;31.67;32.19;101267.03;4908514;28;124000;-71
2022/06/29 11:31:02;;;;;;;2.85;1.50;;;;;;;31.78;31.64;101263.75;4909140;28;124014;-71
2022/06/29 11:33:31;;;;;;;2.03;1.30;;;;;;;31.90;32.23;101267.63;4909560;28;120062;-72
2022/06/29 11:36:25;;;;;;;3.30;1.40;;;;;;;32.05;32.44;101266.72;4918097;28;119981;-71
2022/06/29 11:39:03;;;;;;;1.77;1.10;;;;;;;32.16;32.41;101260.66;4910061;28;124058;-72
2022/06/29 11:44:27;;;;;;;1.98;1.23;;;;;;;32.36;31.25;101256.13;4908516;28;119343;-71
2022/06/29 11:46:55;;;;;;;4.13;1.33;;;;;;;32.44;30.73;101262.47;4910131;28;118869;-71
2022/06/29 11:49:39;;;;;;;2.95;1.30;;;;;;;32.47;30.22;101251.13;4910533;28;123930;-71
2022/06/29 11:52:10;;;;;;;2.17;1.15;;;;;;;32.49;29.77;101254.50;4909985;28;125145;-71